sensor_id;sensor_type;location;lat;lon;timestamp;P1;durP1;ratioP1;P2;durP2;ratioP2
47617;SDS011;33336;36.728;-4.414;2024-02-21T00:04:44;8.10;;;3.47;;
47617;SDS011;33336;36.728;-4.414;2024-02-21T00:09:48;4.15;;;2.60;;
47617;SDS011;33336;36.728;-4.414;2024-02-21T00:14:50;4.60;;;2.60;;
47617;SDS011;33336;36.728;-4.414;2024-02-21T00:19:56;5.85;;;2.90;;
47617;SDS011;33336;36.728;-4.414;2024-02-21T00:24:59;6.30;;;2.40;;
47617;SDS011;33336;36.728;-4.414;2024-02-21T00:30:03;5.60;;;2.53;;
47617;SDS011;33336;36.728;-4.414;2024-02-21T00:35:08;5.43;;;2.75;;
47617;SDS011;33336;36.728;-4.414;2024-02-21T00:40:12;5.03;;;3.17;;
47617;SDS011;33336;36.728;-4.414;2024-02-21T00:45:20;5.22;;;3.15;;
47617;SDS011;33336;36.728;-4.414;2024-02-21T00:50:26;6.13;;;2.80;;
47617;SDS011;33336;36.728;-4.414;2024-02-21T00:55:29;9.88;;;3.28;;
47617;SDS011;33336;36.728;-4.414;2024-02-21T01:00:34;8.02;;;3.50;;
47617;SDS011;33336;36.728;-4.414;2024-02-21T01:05:39;4.05;;;3.03;;
47617;SDS011;33336;36.728;-4.414;2024-02-21T01:10:42;3.88;;;2.80;;
47617;SDS011;33336;36.728;-4.414;2024-02-21T01:15:45;6.18;;;3.15;;
47617;SDS011;33336;36.728;-4.414;2024-02-21T01:20:50;6.80;;;2.45;;
47617;SDS011;33336;36.728;-4.414;2024-02-21T01:25:52;6.43;;;2.78;;
47617;SDS011;33336;36.728;-4.414;2024-02-21T01:30:56;5.80;;;3.40;;
47617;SDS011;33336;36.728;-4.414;2024-02-21T01:36:01;5.28;;;2.88;;
47617;SDS011;33336;36.728;-4.414;2024-02-21T01:41:04;9.88;;;2.97;;
47617;SDS011;33336;36.728;-4.414;2024-02-21T01:46:07;8.02;;;3.28;;
47617;SDS011;33336;36.728;-4.414;2024-02-21T01:51:12;7.00;;;2.88;;
47617;SDS011;33336;36.728;-4.414;2024-02-21T01:56:15;4.47;;;3.03;;
47617;SDS011;33336;36.728;-4.414;2024-02-21T02:01:18;6.88;;;3.40;;
47617;SDS011;33336;36.728;-4.414;2024-02-21T02:06:23;6.70;;;3.65;;
47617;SDS011;33336;36.728;-4.414;2024-02-21T02:11:31;6.10;;;3.10;;
47617;SDS011;33336;36.728;-4.414;2024-02-21T02:16:34;5.18;;;2.80;;
47617;SDS011;33336;36.728;-4.414;2024-02-21T02:21:39;7.65;;;3.25;;
47617;SDS011;33336;36.728;-4.414;2024-02-21T02:26:46;7.80;;;3.15;;
47617;SDS011;33336;36.728;-4.414;2024-02-21T02:31:49;5.88;;;2.90;;
47617;SDS011;33336;36.728;-4.414;2024-02-21T02:36:52;5.88;;;3.13;;
47617;SDS011;33336;36.728;-4.414;2024-02-21T02:41:56;4.60;;;3.03;;
47617;SDS011;33336;36.728;-4.414;2024-02-21T02:46:59;5.38;;;3.08;;
47617;SDS011;33336;36.728;-4.414;2024-02-21T02:52:02;5.28;;;2.85;;
47617;SDS011;33336;36.728;-4.414;2024-02-21T02:57:07;5.00;;;2.60;;
47617;SDS011;33336;36.728;-4.414;2024-02-21T03:02:10;6.63;;;2.75;;
47617;SDS011;33336;36.728;-4.414;2024-02-21T03:07:13;4.45;;;2.85;;
47617;SDS011;33336;36.728;-4.414;2024-02-21T03:12:19;4.53;;;2.63;;
47617;SDS011;33336;36.728;-4.414;2024-02-21T03:17:28;3.72;;;2.47;;
47617;SDS011;33336;36.728;-4.414;2024-02-21T03:22:31;7.82;;;3.03;;
47617;SDS011;33336;36.728;-4.414;2024-02-21T03:27:35;5.85;;;2.53;;
47617;SDS011;33336;36.728;-4.414;2024-02-21T03:32:39;8.05;;;2.90;;
47617;SDS011;33336;36.728;-4.414;2024-02-21T03:37:44;6.43;;;2.95;;
47617;SDS011;33336;36.728;-4.414;2024-02-21T03:42:48;6.20;;;2.63;;
47617;SDS011;33336;36.728;-4.414;2024-02-21T03:47:51;4.75;;;2.42;;
47617;SDS011;33336;36.728;-4.414;2024-02-21T03:52:54;4.90;;;2.53;;
47617;SDS011;33336;36.728;-4.414;2024-02-21T03:57:58;2.45;;;2.10;;
47617;SDS011;33336;36.728;-4.414;2024-02-21T04:03:01;5.00;;;2.30;;
47617;SDS011;33336;36.728;-4.414;2024-02-21T04:08:04;3.70;;;2.40;;
47617;SDS011;33336;36.728;-4.414;2024-02-21T04:13:13;6.55;;;2.35;;
47617;SDS011;33336;36.728;-4.414;2024-02-21T04:18:15;4.47;;;1.90;;
47617;SDS011;33336;36.728;-4.414;2024-02-21T04:23:18;4.03;;;2.15;;
47617;SDS011;33336;36.728;-4.414;2024-02-21T04:28:22;2.55;;;1.83;;
47617;SDS011;33336;36.728;-4.414;2024-02-21T04:33:26;2.05;;;1.70;;
47617;SDS011;33336;36.728;-4.414;2024-02-21T04:38:30;4.43;;;1.98;;
47617;SDS011;33336;36.728;-4.414;2024-02-21T04:43:34;1.70;;;1.15;;
47617;SDS011;33336;36.728;-4.414;2024-02-21T04:48:37;3.17;;;1.50;;
47617;SDS011;33336;36.728;-4.414;2024-02-21T04:53:39;2.45;;;1.70;;
47617;SDS011;33336;36.728;-4.414;2024-02-21T04:58:43;2.97;;;1.40;;
47617;SDS011;33336;36.728;-4.414;2024-02-21T05:03:46;2.45;;;1.67;;
47617;SDS011;33336;36.728;-4.414;2024-02-21T05:08:49;2.17;;;1.60;;
47617;SDS011;33336;36.728;-4.414;2024-02-21T05:13:54;5.18;;;1.60;;
47617;SDS011;33336;36.728;-4.414;2024-02-21T05:18:58;2.55;;;1.95;;
47617;SDS011;33336;36.728;-4.414;2024-02-21T05:24:01;4.40;;;1.70;;
47617;SDS011;33336;36.728;-4.414;2024-02-21T05:29:06;1.60;;;1.20;;
47617;SDS011;33336;36.728;-4.414;2024-02-21T05:34:09;4.47;;;1.55;;
47617;SDS011;33336;36.728;-4.414;2024-02-21T05:39:14;2.25;;;1.48;;
47617;SDS011;33336;36.728;-4.414;2024-02-21T05:44:20;4.57;;;1.50;;
47617;SDS011;33336;36.728;-4.414;2024-02-21T05:49:23;3.70;;;1.60;;
47617;SDS011;33336;36.728;-4.414;2024-02-21T05:54:26;2.90;;;1.80;;
47617;SDS011;33336;36.728;-4.414;2024-02-21T05:59:30;3.70;;;1.50;;
47617;SDS011;33336;36.728;-4.414;2024-02-21T06:04:33;4.40;;;1.80;;
47617;SDS011;33336;36.728;-4.414;2024-02-21T06:09:36;2.45;;;2.00;;
47617;SDS011;33336;36.728;-4.414;2024-02-21T06:14:41;3.40;;;2.10;;
47617;SDS011;33336;36.728;-4.414;2024-02-21T06:19:45;3.47;;;2.30;;
47617;SDS011;33336;36.728;-4.414;2024-02-21T06:24:48;3.95;;;2.45;;
47617;SDS011;33336;36.728;-4.414;2024-02-21T06:29:52;3.65;;;2.60;;
47617;SDS011;33336;36.728;-4.414;2024-02-21T06:34:56;4.32;;;2.58;;
47617;SDS011;33336;36.728;-4.414;2024-02-21T06:39:59;3.28;;;2.17;;
47617;SDS011;33336;36.728;-4.414;2024-02-21T06:45:04;2.90;;;1.27;;
47617;SDS011;33336;36.728;-4.414;2024-02-21T06:50:08;2.85;;;1.70;;
47617;SDS011;33336;36.728;-4.414;2024-02-21T06:55:11;2.55;;;1.85;;
47617;SDS011;33336;36.728;-4.414;2024-02-21T07:00:16;6.90;;;2.40;;
47617;SDS011;33336;36.728;-4.414;2024-02-21T07:05:20;10.52;;;2.60;;
47617;SDS011;33336;36.728;-4.414;2024-02-21T07:10:24;4.88;;;2.35;;
47617;SDS011;33336;36.728;-4.414;2024-02-21T07:15:30;4.80;;;2.33;;
47617;SDS011;33336;36.728;-4.414;2024-02-21T07:20:33;10.27;;;2.80;;
47617;SDS011;33336;36.728;-4.414;2024-02-21T07:25:38;6.18;;;2.90;;
47617;SDS011;33336;36.728;-4.414;2024-02-21T07:30:43;10.23;;;2.47;;
47617;SDS011;33336;36.728;-4.414;2024-02-21T07:35:46;3.67;;;2.30;;
47617;SDS011;33336;36.728;-4.414;2024-02-21T07:40:49;6.18;;;2.50;;
47617;SDS011;33336;36.728;-4.414;2024-02-21T07:45:54;8.30;;;3.08;;
47617;SDS011;33336;36.728;-4.414;2024-02-21T07:50:56;7.47;;;3.60;;
47617;SDS011;33336;36.728;-4.414;2024-02-21T07:55:59;8.65;;;3.03;;
47617;SDS011;33336;36.728;-4.414;2024-02-21T08:01:04;8.10;;;3.78;;
47617;SDS011;33336;36.728;-4.414;2024-02-21T08:06:11;10.35;;;4.88;;
47617;SDS011;33336;36.728;-4.414;2024-02-21T08:11:14;7.85;;;4.03;;
47617;SDS011;33336;36.728;-4.414;2024-02-21T08:16:19;11.77;;;3.83;;
47617;SDS011;33336;36.728;-4.414;2024-02-21T08:21:23;11.52;;;4.15;;
47617;SDS011;33336;36.728;-4.414;2024-02-21T08:26:26;9.98;;;3.60;;
47617;SDS011;33336;36.728;-4.414;2024-02-21T08:31:32;7.38;;;3.38;;
47617;SDS011;33336;36.728;-4.414;2024-02-21T08:36:35;6.82;;;2.17;;
47617;SDS011;33336;36.728;-4.414;2024-02-21T08:41:38;4.35;;;2.33;;
47617;SDS011;33336;36.728;-4.414;2024-02-21T08:46:44;6.28;;;2.10;;
47617;SDS011;33336;36.728;-4.414;2024-02-21T08:51:47;6.95;;;2.88;;
47617;SDS011;33336;36.728;-4.414;2024-02-21T08:56:50;7.15;;;3.92;;
47617;SDS011;33336;36.728;-4.414;2024-02-21T09:01:54;5.20;;;2.70;;
47617;SDS011;33336;36.728;-4.414;2024-02-21T09:06:57;8.70;;;3.35;;
47617;SDS011;33336;36.728;-4.414;2024-02-21T09:12:00;8.63;;;3.17;;
47617;SDS011;33336;36.728;-4.414;2024-02-21T09:17:08;12.77;;;3.80;;
47617;SDS011;33336;36.728;-4.414;2024-02-21T09:22:11;16.25;;;6.30;;
47617;SDS011;33336;36.728;-4.414;2024-02-21T09:27:15;15.45;;;9.27;;
47617;SDS011;33336;36.728;-4.414;2024-02-21T09:32:19;22.52;;;9.25;;
47617;SDS011;33336;36.728;-4.414;2024-02-21T09:37:22;30.90;;;11.43;;
47617;SDS011;33336;36.728;-4.414;2024-02-21T09:42:28;23.98;;;11.30;;
47617;SDS011;33336;36.728;-4.414;2024-02-21T09:47:43;14.45;;;9.55;;
47617;SDS011;33336;36.728;-4.414;2024-02-21T09:52:52;13.35;;;7.25;;
47617;SDS011;33336;36.728;-4.414;2024-02-21T09:57:57;14.75;;;10.57;;
47617;SDS011;33336;36.728;-4.414;2024-02-21T10:03:02;16.92;;;12.35;;
47617;SDS011;33336;36.728;-4.414;2024-02-21T10:08:13;14.18;;;11.50;;
47617;SDS011;33336;36.728;-4.414;2024-02-21T10:13:24;12.68;;;8.30;;
47617;SDS011;33336;36.728;-4.414;2024-02-21T10:18:29;13.27;;;9.52;;
47617;SDS011;33336;36.728;-4.414;2024-02-21T10:23:42;11.52;;;7.57;;
47617;SDS011;33336;36.728;-4.414;2024-02-21T10:28:46;10.45;;;6.38;;
47617;SDS011;33336;36.728;-4.414;2024-02-21T10:33:57;9.85;;;7.00;;
47617;SDS011;33336;36.728;-4.414;2024-02-21T10:39:00;13.50;;;9.80;;
47617;SDS011;33336;36.728;-4.414;2024-02-21T10:44:04;12.80;;;8.23;;
47617;SDS011;33336;36.728;-4.414;2024-02-21T10:49:13;13.25;;;9.48;;
47617;SDS011;33336;36.728;-4.414;2024-02-21T10:54:30;13.07;;;9.35;;
47617;SDS011;33336;36.728;-4.414;2024-02-21T10:59:44;13.77;;;8.00;;
47617;SDS011;33336;36.728;-4.414;2024-02-21T11:04:48;13.45;;;7.75;;
47617;SDS011;33336;36.728;-4.414;2024-02-21T11:09:54;11.80;;;7.33;;
47617;SDS011;33336;36.728;-4.414;2024-02-21T11:15:03;12.70;;;8.68;;
47617;SDS011;33336;36.728;-4.414;2024-02-21T11:20:12;12.35;;;5.55;;
47617;SDS011;33336;36.728;-4.414;2024-02-21T11:25:21;12.07;;;5.95;;
47617;SDS011;33336;36.728;-4.414;2024-02-21T11:30:26;10.40;;;5.22;;
47617;SDS011;33336;36.728;-4.414;2024-02-21T11:35:34;11.63;;;4.85;;
47617;SDS011;33336;36.728;-4.414;2024-02-21T11:40:38;11.40;;;5.78;;
47617;SDS011;33336;36.728;-4.414;2024-02-21T11:45:42;13.27;;;6.30;;
47617;SDS011;33336;36.728;-4.414;2024-02-21T11:50:53;13.82;;;5.97;;
47617;SDS011;33336;36.728;-4.414;2024-02-21T11:55:56;12.50;;;5.20;;
47617;SDS011;33336;36.728;-4.414;2024-02-21T12:01:00;14.27;;;6.78;;
47617;SDS011;33336;36.728;-4.414;2024-02-21T12:06:05;8.05;;;4.20;;
47617;SDS011;33336;36.728;-4.414;2024-02-21T12:11:16;8.32;;;3.50;;
47617;SDS011;33336;36.728;-4.414;2024-02-21T12:16:22;13.73;;;4.03;;
47617;SDS011;33336;36.728;-4.414;2024-02-21T12:21:29;6.18;;;3.03;;
47617;SDS011;33336;36.728;-4.414;2024-02-21T12:26:37;7.53;;;2.63;;
47617;SDS011;33336;36.728;-4.414;2024-02-21T12:31:40;9.23;;;3.70;;
47617;SDS011;33336;36.728;-4.414;2024-02-21T12:36:45;4.88;;;2.70;;
47617;SDS011;33336;36.728;-4.414;2024-02-21T12:41:48;6.60;;;3.42;;
47617;SDS011;33336;36.728;-4.414;2024-02-21T12:46:51;5.57;;;3.53;;
47617;SDS011;33336;36.728;-4.414;2024-02-21T12:51:56;6.80;;;3.47;;
47617;SDS011;33336;36.728;-4.414;2024-02-21T12:56:59;4.95;;;3.53;;
47617;SDS011;33336;36.728;-4.414;2024-02-21T13:02:04;10.70;;;5.15;;
47617;SDS011;33336;36.728;-4.414;2024-02-21T13:07:10;10.60;;;4.80;;
47617;SDS011;33336;36.728;-4.414;2024-02-21T13:12:13;7.68;;;4.43;;
47617;SDS011;33336;36.728;-4.414;2024-02-21T13:17:16;7.45;;;3.72;;
47617;SDS011;33336;36.728;-4.414;2024-02-21T13:22:20;6.57;;;3.13;;
47617;SDS011;33336;36.728;-4.414;2024-02-21T13:32:29;5.18;;;3.63;;
47617;SDS011;33336;36.728;-4.414;2024-02-21T13:37:33;5.25;;;3.38;;
47617;SDS011;33336;36.728;-4.414;2024-02-21T13:42:37;7.28;;;2.97;;
47617;SDS011;33336;36.728;-4.414;2024-02-21T13:47:40;4.63;;;2.67;;
47617;SDS011;33336;36.728;-4.414;2024-02-21T13:52:44;4.07;;;3.00;;
47617;SDS011;33336;36.728;-4.414;2024-02-21T13:57:47;6.22;;;3.05;;
47617;SDS011;33336;36.728;-4.414;2024-02-21T14:02:51;8.43;;;2.60;;
47617;SDS011;33336;36.728;-4.414;2024-02-21T14:07:56;4.85;;;2.50;;
47617;SDS011;33336;36.728;-4.414;2024-02-21T14:12:59;5.18;;;2.97;;
47617;SDS011;33336;36.728;-4.414;2024-02-21T14:18:02;6.43;;;3.60;;
47617;SDS011;33336;36.728;-4.414;2024-02-21T14:23:10;5.25;;;2.10;;
47617;SDS011;33336;36.728;-4.414;2024-02-21T14:28:14;9.50;;;3.65;;
47617;SDS011;33336;36.728;-4.414;2024-02-21T14:33:17;4.68;;;2.58;;
47617;SDS011;33336;36.728;-4.414;2024-02-21T14:38:21;10.05;;;3.65;;
47617;SDS011;33336;36.728;-4.414;2024-02-21T14:43:24;6.20;;;2.88;;
47617;SDS011;33336;36.728;-4.414;2024-02-21T14:48:27;6.13;;;2.92;;
47617;SDS011;33336;36.728;-4.414;2024-02-21T14:53:32;4.57;;;2.88;;
47617;SDS011;33336;36.728;-4.414;2024-02-21T14:58:35;6.95;;;2.83;;
47617;SDS011;33336;36.728;-4.414;2024-02-21T15:03:41;5.45;;;2.33;;
47617;SDS011;33336;36.728;-4.414;2024-02-21T15:08:46;5.55;;;2.85;;
47617;SDS011;33336;36.728;-4.414;2024-02-21T15:13:50;5.90;;;2.95;;
47617;SDS011;33336;36.728;-4.414;2024-02-21T15:18:53;6.10;;;2.65;;
47617;SDS011;33336;36.728;-4.414;2024-02-21T15:23:58;4.75;;;2.70;;
47617;SDS011;33336;36.728;-4.414;2024-02-21T15:29:04;5.60;;;2.30;;
47617;SDS011;33336;36.728;-4.414;2024-02-21T15:34:07;4.70;;;1.88;;
47617;SDS011;33336;36.728;-4.414;2024-02-21T15:39:11;5.97;;;2.33;;
47617;SDS011;33336;36.728;-4.414;2024-02-21T15:44:15;4.90;;;1.50;;
47617;SDS011;33336;36.728;-4.414;2024-02-21T15:49:18;3.95;;;1.92;;
47617;SDS011;33336;36.728;-4.414;2024-02-21T15:54:22;5.28;;;2.55;;
47617;SDS011;33336;36.728;-4.414;2024-02-21T15:59:28;3.50;;;2.50;;
47617;SDS011;33336;36.728;-4.414;2024-02-21T16:04:33;5.07;;;2.55;;
47617;SDS011;33336;36.728;-4.414;2024-02-21T16:09:37;4.78;;;2.50;;
47617;SDS011;33336;36.728;-4.414;2024-02-21T16:14:45;5.13;;;2.33;;
47617;SDS011;33336;36.728;-4.414;2024-02-21T16:19:48;4.53;;;3.13;;
47617;SDS011;33336;36.728;-4.414;2024-02-21T16:24:53;6.13;;;3.30;;
47617;SDS011;33336;36.728;-4.414;2024-02-21T16:29:56;3.75;;;2.83;;
47617;SDS011;33336;36.728;-4.414;2024-02-21T16:35:00;6.22;;;3.25;;
47617;SDS011;33336;36.728;-4.414;2024-02-21T16:40:05;4.05;;;2.65;;
47617;SDS011;33336;36.728;-4.414;2024-02-21T16:45:09;5.30;;;2.75;;
47617;SDS011;33336;36.728;-4.414;2024-02-21T16:50:12;6.57;;;2.67;;
47617;SDS011;33336;36.728;-4.414;2024-02-21T16:55:16;7.28;;;2.20;;
47617;SDS011;33336;36.728;-4.414;2024-02-21T17:00:19;3.83;;;2.42;;
47617;SDS011;33336;36.728;-4.414;2024-02-21T17:05:24;5.68;;;2.42;;
47617;SDS011;33336;36.728;-4.414;2024-02-21T17:10:28;7.18;;;3.70;;
47617;SDS011;33336;36.728;-4.414;2024-02-21T17:15:32;8.27;;;3.40;;
47617;SDS011;33336;36.728;-4.414;2024-02-21T17:20:35;3.80;;;2.72;;
47617;SDS011;33336;36.728;-4.414;2024-02-21T17:25:39;4.85;;;2.88;;
47617;SDS011;33336;36.728;-4.414;2024-02-21T17:30:42;3.63;;;2.30;;
47617;SDS011;33336;36.728;-4.414;2024-02-21T17:35:45;3.45;;;2.63;;
47617;SDS011;33336;36.728;-4.414;2024-02-21T17:40:50;5.35;;;2.25;;
47617;SDS011;33336;36.728;-4.414;2024-02-21T17:45:53;2.90;;;1.65;;
47617;SDS011;33336;36.728;-4.414;2024-02-21T17:50:57;1.80;;;1.50;;
47617;SDS011;33336;36.728;-4.414;2024-02-21T17:56:02;2.47;;;1.38;;
47617;SDS011;33336;36.728;-4.414;2024-02-21T18:01:06;4.18;;;1.50;;
47617;SDS011;33336;36.728;-4.414;2024-02-21T18:06:09;2.30;;;1.13;;
47617;SDS011;33336;36.728;-4.414;2024-02-21T18:11:13;2.75;;;1.60;;
47617;SDS011;33336;36.728;-4.414;2024-02-21T18:16:17;3.83;;;2.70;;
47617;SDS011;33336;36.728;-4.414;2024-02-21T18:21:20;5.30;;;2.55;;
47617;SDS011;33336;36.728;-4.414;2024-02-21T18:26:25;5.85;;;2.20;;
47617;SDS011;33336;36.728;-4.414;2024-02-21T18:31:30;3.42;;;1.67;;
47617;SDS011;33336;36.728;-4.414;2024-02-21T18:36:33;5.07;;;2.95;;
47617;SDS011;33336;36.728;-4.414;2024-02-21T18:41:37;4.40;;;2.33;;
47617;SDS011;33336;36.728;-4.414;2024-02-21T18:46:43;2.70;;;2.15;;
47617;SDS011;33336;36.728;-4.414;2024-02-21T18:51:46;3.25;;;2.35;;
47617;SDS011;33336;36.728;-4.414;2024-02-21T18:56:50;5.15;;;2.50;;
47617;SDS011;33336;36.728;-4.414;2024-02-21T19:01:53;3.75;;;2.30;;
47617;SDS011;33336;36.728;-4.414;2024-02-21T19:06:56;3.42;;;2.40;;
47617;SDS011;33336;36.728;-4.414;2024-02-21T19:12:00;5.07;;;3.17;;
47617;SDS011;33336;36.728;-4.414;2024-02-21T19:17:03;9.55;;;3.38;;
47617;SDS011;33336;36.728;-4.414;2024-02-21T19:22:06;4.95;;;2.65;;
47617;SDS011;33336;36.728;-4.414;2024-02-21T19:27:10;5.70;;;2.40;;
47617;SDS011;33336;36.728;-4.414;2024-02-21T19:32:13;4.15;;;2.10;;
47617;SDS011;33336;36.728;-4.414;2024-02-21T19:37:17;8.40;;;2.97;;
47617;SDS011;33336;36.728;-4.414;2024-02-21T19:42:21;4.40;;;2.60;;
47617;SDS011;33336;36.728;-4.414;2024-02-21T19:47:24;4.70;;;2.85;;
47617;SDS011;33336;36.728;-4.414;2024-02-21T19:52:27;7.90;;;3.13;;
47617;SDS011;33336;36.728;-4.414;2024-02-21T19:57:33;4.35;;;2.42;;
47617;SDS011;33336;36.728;-4.414;2024-02-21T20:02:36;4.00;;;2.53;;
47617;SDS011;33336;36.728;-4.414;2024-02-21T20:07:40;5.28;;;2.95;;
47617;SDS011;33336;36.728;-4.414;2024-02-21T20:12:45;7.05;;;3.10;;
47617;SDS011;33336;36.728;-4.414;2024-02-21T20:17:50;8.98;;;3.17;;
47617;SDS011;33336;36.728;-4.414;2024-02-21T20:22:55;5.15;;;3.70;;
47617;SDS011;33336;36.728;-4.414;2024-02-21T20:28:01;4.57;;;2.72;;
47617;SDS011;33336;36.728;-4.414;2024-02-21T20:33:05;6.82;;;2.72;;
47617;SDS011;33336;36.728;-4.414;2024-02-21T20:38:09;6.50;;;3.03;;
47617;SDS011;33336;36.728;-4.414;2024-02-21T20:43:14;7.70;;;3.80;;
47617;SDS011;33336;36.728;-4.414;2024-02-21T20:48:18;8.82;;;4.07;;
47617;SDS011;33336;36.728;-4.414;2024-02-21T20:53:21;10.40;;;4.03;;
47617;SDS011;33336;36.728;-4.414;2024-02-21T20:58:28;8.90;;;4.05;;
47617;SDS011;33336;36.728;-4.414;2024-02-21T21:03:31;9.02;;;5.25;;
47617;SDS011;33336;36.728;-4.414;2024-02-21T21:08:35;8.07;;;4.80;;
47617;SDS011;33336;36.728;-4.414;2024-02-21T21:13:40;9.48;;;4.68;;
47617;SDS011;33336;36.728;-4.414;2024-02-21T21:18:44;9.30;;;5.65;;
47617;SDS011;33336;36.728;-4.414;2024-02-21T21:23:47;6.95;;;3.80;;
47617;SDS011;33336;36.728;-4.414;2024-02-21T21:28:53;12.98;;;5.72;;
47617;SDS011;33336;36.728;-4.414;2024-02-21T21:33:58;13.65;;;5.95;;
47617;SDS011;33336;36.728;-4.414;2024-02-21T21:39:02;7.20;;;4.30;;
47617;SDS011;33336;36.728;-4.414;2024-02-21T21:44:08;7.18;;;4.45;;
47617;SDS011;33336;36.728;-4.414;2024-02-21T21:54:17;9.43;;;3.72;;
47617;SDS011;33336;36.728;-4.414;2024-02-21T21:59:22;7.22;;;4.10;;
47617;SDS011;33336;36.728;-4.414;2024-02-21T22:04:26;10.32;;;4.65;;
47617;SDS011;33336;36.728;-4.414;2024-02-21T22:09:30;9.38;;;4.53;;
47617;SDS011;33336;36.728;-4.414;2024-02-21T22:14:35;10.52;;;5.75;;
47617;SDS011;33336;36.728;-4.414;2024-02-21T22:19:38;10.55;;;4.70;;
47617;SDS011;33336;36.728;-4.414;2024-02-21T22:24:40;6.80;;;3.17;;
47617;SDS011;33336;36.728;-4.414;2024-02-21T22:29:49;9.60;;;3.95;;
47617;SDS011;33336;36.728;-4.414;2024-02-21T22:39:57;5.10;;;3.22;;
47617;SDS011;33336;36.728;-4.414;2024-02-21T22:45:01;6.70;;;3.25;;
47617;SDS011;33336;36.728;-4.414;2024-02-21T22:50:05;6.00;;;3.63;;
47617;SDS011;33336;36.728;-4.414;2024-02-21T22:55:08;6.57;;;3.50;;
47617;SDS011;33336;36.728;-4.414;2024-02-21T23:00:14;5.90;;;3.47;;
47617;SDS011;33336;36.728;-4.414;2024-02-21T23:05:17;6.88;;;3.22;;
47617;SDS011;33336;36.728;-4.414;2024-02-21T23:10:21;4.30;;;2.45;;
47617;SDS011;33336;36.728;-4.414;2024-02-21T23:15:26;3.45;;;2.15;;
47617;SDS011;33336;36.728;-4.414;2024-02-21T23:20:29;5.93;;;2.42;;
47617;SDS011;33336;36.728;-4.414;2024-02-21T23:25:32;7.30;;;3.33;;
47617;SDS011;33336;36.728;-4.414;2024-02-21T23:30:37;4.07;;;3.00;;
47617;SDS011;33336;36.728;-4.414;2024-02-21T23:35:41;3.50;;;2.20;;
47617;SDS011;33336;36.728;-4.414;2024-02-21T23:40:45;2.25;;;1.88;;
47617;SDS011;33336;36.728;-4.414;2024-02-21T23:45:49;3.72;;;1.85;;
47617;SDS011;33336;36.728;-4.414;2024-02-21T23:50:53;5.05;;;1.70;;
47617;SDS011;33336;36.728;-4.414;2024-02-21T23:55:55;3.10;;;1.80;;
